Time;durP1;ratioP1;P1;durP2;ratioP2;P2;SDS_P1;SDS_P2;PMS_P1;PMS_P2;Temp;Humidity;BMP_temperature;BMP_pressure;BME280_temperature;BME280_humidity;BME280_pressure;Samples;Min_cycle;Max_cycle;Signal;HPM_P1;HPM_P2
2021/05/25 00:00:30;;;;;;;1.13;1.13;;;9.60;99.90;;;;;;5042831;28;20228;-83
2021/05/25 00:02:57;;;;;;;1.23;1.13;;;9.50;99.90;;;;;;5042302;28;20453;-83
2021/05/25 00:05:26;;;;;;;1.60;1.13;;;9.50;99.90;;;;;;5045318;28;20215;-83
2021/05/25 00:07:54;;;;;;;0.82;0.82;;;9.50;99.90;;;;;;5042560;28;20215;-81
2021/05/25 00:10:22;;;;;;;1.98;1.08;;;9.50;99.90;;;;;;5041718;28;20294;-82
2021/05/25 00:12:48;;;;;;;1.27;0.68;;;9.40;99.90;;;;;;5041415;28;20208;-84
2021/05/25 00:15:17;;;;;;;0.95;0.65;;;9.40;99.90;;;;;;5042269;28;20285;-85
2021/05/25 00:17:44;;;;;;;1.48;1.02;;;9.40;99.90;;;;;;5042257;28;20215;-84
2021/05/25 00:20:12;;;;;;;2.85;1.10;;;9.40;99.90;;;;;;5041121;28;20243;-85
2021/05/25 00:22:39;;;;;;;2.70;1.02;;;9.30;99.90;;;;;;5042543;28;20217;-84
2021/05/25 00:25:06;;;;;;;1.08;1.05;;;9.30;99.90;;;;;;5041011;28;20215;-82
2021/05/25 00:27:33;;;;;;;1.17;1.08;;;9.20;99.90;;;;;;5041964;28;20215;-85
2021/05/25 00:30:00;;;;;;;1.23;1.02;;;9.20;99.90;;;;;;5040963;28;20223;-84
2021/05/25 00:32:26;;;;;;;1.92;1.10;;;9.20;99.90;;;;;;5041435;28;20259;-85
2021/05/25 00:34:53;;;;;;;0.90;0.82;;;9.10;99.90;;;;;;5040521;28;20676;-85
2021/05/25 00:37:19;;;;;;;1.33;1.23;;;9.10;99.90;;;;;;5041242;28;20208;-82
2021/05/25 00:39:45;;;;;;;0.82;0.82;;;9.10;99.90;;;;;;5041299;28;20238;-82
2021/05/25 00:42:11;;;;;;;1.13;1.13;;;9.10;99.90;;;;;;5041109;28;20212;-84
2021/05/25 00:44:39;;;;;;;1.27;1.17;;;9.00;99.90;;;;;;5041176;28;20222;-83
2021/05/25 00:47:05;;;;;;;1.40;1.10;;;9.10;99.90;;;;;;5040979;28;20226;-85
2021/05/25 00:49:31;;;;;;;1.45;1.27;;;9.00;99.90;;;;;;5040883;28;20224;-85
2021/05/25 00:51:57;;;;;;;1.20;0.95;;;9.00;99.90;;;;;;5040473;28;20218;-83
2021/05/25 00:54:24;;;;;;;0.90;0.90;;;9.00;99.90;;;;;;5040351;28;20206;-82
2021/05/25 00:56:50;;;;;;;1.63;1.20;;;9.00;99.90;;;;;;5040427;28;20211;-83
2021/05/25 00:59:17;;;;;;;0.80;0.80;;;9.00;99.90;;;;;;5040345;28;20222;-83
2021/05/25 01:01:44;;;;;;;1.13;1.02;;;9.00;99.90;;;;;;5041140;28;20233;-82
2021/05/25 01:04:10;;;;;;;3.53;1.20;;;8.90;99.90;;;;;;5040151;28;20220;-82
2021/05/25 01:06:36;;;;;;;1.02;0.88;;;8.90;99.90;;;;;;5041395;28;20699;-82
2021/05/25 01:09:04;;;;;;;1.67;1.15;;;8.90;99.90;;;;;;5040819;28;20246;-83
2021/05/25 01:11:33;;;;;;;1.15;1.05;;;8.80;99.90;;;;;;5040812;28;20210;-82
2021/05/25 01:14:00;;;;;;;1.25;0.90;;;8.80;99.90;;;;;;5040092;28;20211;-81
2021/05/25 01:16:27;;;;;;;0.88;0.88;;;8.80;99.90;;;;;;5040851;28;20213;-82
2021/05/25 01:18:55;;;;;;;2.08;0.95;;;8.80;99.90;;;;;;5039787;28;20230;-82
2021/05/25 01:21:24;;;;;;;2.10;2.00;;;8.70;99.90;;;;;;5040614;28;20244;-78
2021/05/25 01:23:51;;;;;;;1.38;1.27;;;8.70;99.90;;;;;;5040362;28;20759;-82
2021/05/25 01:26:18;;;;;;;1.00;1.00;;;8.70;99.90;;;;;;5040668;28;20210;-83
2021/05/25 01:28:46;;;;;;;1.45;0.85;;;8.70;99.90;;;;;;5040734;28;20292;-83
2021/05/25 01:31:13;;;;;;;1.55;1.45;;;8.70;99.90;;;;;;5041049;28;20280;-82
2021/05/25 01:33:40;;;;;;;0.98;0.98;;;8.60;99.90;;;;;;5041110;28;20233;-82
2021/05/25 01:36:08;;;;;;;1.10;1.00;;;8.60;99.90;;;;;;5041713;28;20203;-83
2021/05/25 01:38:35;;;;;;;1.15;0.90;;;8.60;99.90;;;;;;5043099;28;20227;-82
2021/05/25 01:41:03;;;;;;;1.90;1.30;;;8.60;99.90;;;;;;5044778;28;20230;-83
2021/05/25 01:43:29;;;;;;;1.17;1.17;;;8.60;99.90;;;;;;5049560;28;20214;-82
2021/05/25 01:45:55;;;;;;;1.77;1.10;;;8.60;99.90;;;;;;5051468;28;20217;-79
2021/05/25 01:48:22;;;;;;;1.13;1.02;;;8.60;99.90;;;;;;5052270;28;20208;-80
2021/05/25 01:50:48;;;;;;;3.58;1.38;;;8.60;99.90;;;;;;5048812;28;20198;-83
2021/05/25 01:53:16;;;;;;;2.97;1.40;;;8.50;99.90;;;;;;5049012;28;20207;-83
2021/05/25 01:55:44;;;;;;;1.25;0.80;;;8.50;99.90;;;;;;5051444;28;20213;-82
2021/05/25 01:58:14;;;;;;;0.90;0.90;;;8.50;99.90;;;;;;5051025;28;20302;-82
2021/05/25 02:00:43;;;;;;;1.00;0.77;;;8.50;99.90;;;;;;5052495;28;20223;-81
2021/05/25 02:03:10;;;;;;;2.25;1.00;;;8.50;99.90;;;;;;5052172;28;20293;-84
2021/05/25 02:05:37;;;;;;;1.80;0.90;;;8.50;99.90;;;;;;5053519;28;20210;-81
2021/05/25 02:08:05;;;;;;;1.45;1.10;;;8.50;99.90;;;;;;5052900;28;20202;-81
2021/05/25 02:10:34;;;;;;;2.35;1.27;;;8.50;99.90;;;;;;5050905;28;20230;-81
2021/05/25 02:13:04;;;;;;;2.55;0.90;;;8.50;99.90;;;;;;5049740;28;20206;-78
2021/05/25 02:15:32;;;;;;;1.17;1.08;;;8.50;99.90;;;;;;5050489;28;20218;-81
2021/05/25 02:18:05;;;;;;;2.17;1.50;;;8.40;99.90;;;;;;5049955;28;20224;-80
2021/05/25 02:20:31;;;;;;;1.55;1.38;;;8.50;99.90;;;;;;5050474;28;20230;-83
2021/05/25 02:22:57;;;;;;;1.20;1.10;;;8.50;99.90;;;;;;5046817;28;20263;-83
2021/05/25 02:25:24;;;;;;;2.17;0.80;;;8.50;99.90;;;;;;5050758;28;20215;-79
2021/05/25 02:27:50;;;;;;;3.30;1.05;;;8.40;99.90;;;;;;5051528;28;20214;-82
2021/05/25 02:30:16;;;;;;;1.20;1.08;;;8.40;99.90;;;;;;5048936;28;20223;-82
2021/05/25 02:32:44;;;;;;;1.20;1.10;;;8.40;99.90;;;;;;5044956;28;20202;-84
2021/05/25 02:35:11;;;;;;;2.10;1.20;;;8.40;99.90;;;;;;5047338;28;20214;-84
2021/05/25 02:37:38;;;;;;;1.80;0.82;;;8.40;99.90;;;;;;5048360;28;20202;-84
2021/05/25 02:40:06;;;;;;;1.65;0.90;;;8.30;99.90;;;;;;5048366;28;20263;-81
2021/05/25 02:42:33;;;;;;;1.40;0.82;;;8.30;99.90;;;;;;5044228;28;20237;-84
2021/05/25 02:44:59;;;;;;;2.15;0.95;;;8.30;99.90;;;;;;5041661;28;20208;-84
2021/05/25 02:47:25;;;;;;;1.02;0.93;;;8.30;99.90;;;;;;5043616;28;20210;-82
2021/05/25 02:49:52;;;;;;;0.88;0.88;;;8.30;99.90;;;;;;5044075;28;20446;-83
2021/05/25 02:52:20;;;;;;;1.30;0.70;;;8.20;99.90;;;;;;5043590;28;20207;-84
2021/05/25 02:54:46;;;;;;;2.08;1.95;;;8.20;99.90;;;;;;5046434;28;20256;-84
2021/05/25 02:57:13;;;;;;;0.95;0.82;;;8.20;99.90;;;;;;5043475;28;20208;-84
2021/05/25 02:59:39;;;;;;;1.27;1.02;;;8.20;99.90;;;;;;5046527;28;20226;-84
2021/05/25 03:02:05;;;;;;;1.58;1.10;;;8.20;99.90;;;;;;5045019;28;20210;-84
2021/05/25 03:04:31;;;;;;;1.05;0.60;;;8.20;99.90;;;;;;5048046;28;20210;-83
2021/05/25 03:06:59;;;;;;;1.50;0.95;;;8.20;99.90;;;;;;5044057;28;20216;-84
2021/05/25 03:09:29;;;;;;;1.00;1.00;;;8.20;99.90;;;;;;5042016;28;20222;-82
2021/05/25 03:11:55;;;;;;;2.80;1.00;;;8.20;99.90;;;;;;5042200;28;20265;-81
2021/05/25 03:14:23;;;;;;;1.67;0.80;;;8.20;99.90;;;;;;5043274;28;20207;-84
2021/05/25 03:16:49;;;;;;;1.52;0.70;;;8.20;99.90;;;;;;5046797;28;20230;-84
2021/05/25 03:19:16;;;;;;;1.40;1.40;;;8.20;99.90;;;;;;5044475;28;20227;-84
2021/05/25 03:21:42;;;;;;;0.90;0.90;;;8.20;99.90;;;;;;5045231;28;20230;-77
2021/05/25 03:24:10;;;;;;;1.98;0.70;;;8.10;99.90;;;;;;5050092;28;20202;-82
2021/05/25 03:26:36;;;;;;;1.30;1.20;;;8.10;99.90;;;;;;5045220;28;20255;-84
2021/05/25 03:29:02;;;;;;;1.40;1.00;;;8.10;99.90;;;;;;5050620;28;20230;-79
2021/05/25 03:31:29;;;;;;;0.90;0.80;;;8.10;99.90;;;;;;5047104;28;20707;-80
2021/05/25 03:33:55;;;;;;;1.30;0.80;;;8.10;99.90;;;;;;5048201;28;20232;-84
2021/05/25 03:36:21;;;;;;;0.93;0.93;;;8.10;99.90;;;;;;5048042;28;20210;-81
2021/05/25 03:38:47;;;;;;;3.00;0.98;;;8.10;99.90;;;;;;5047690;28;20225;-84
2021/05/25 03:41:14;;;;;;;1.85;1.00;;;8.10;99.90;;;;;;5048725;28;20226;-84
2021/05/25 03:43:41;;;;;;;2.10;1.05;;;8.10;99.90;;;;;;5048155;28;20203;-81
2021/05/25 03:46:07;;;;;;;2.58;2.40;;;8.10;99.90;;;;;;5053141;28;20236;-80
2021/05/25 03:48:33;;;;;;;2.80;1.40;;;8.10;99.90;;;;;;5052864;28;20317;-81
2021/05/25 03:50:59;;;;;;;1.05;0.95;;;8.10;99.90;;;;;;5053591;28;20191;-80
2021/05/25 03:53:27;;;;;;;0.85;0.82;;;8.10;99.90;;;;;;5051870;28;20202;-78
2021/05/25 03:55:55;;;;;;;3.40;1.40;;;8.00;99.90;;;;;;5051339;28;20218;-78
2021/05/25 04:01:06;;;;;;;1.15;0.50;;;8.00;99.90;;;;;;5043125;28;20263;-81
2021/05/25 04:03:35;;;;;;;1.05;1.05;;;8.00;99.90;;;;;;5042866;28;20206;-82
2021/05/25 04:06:01;;;;;;;2.78;1.08;;;8.00;99.90;;;;;;5042378;28;20714;-82
2021/05/25 04:08:27;;;;;;;0.90;0.90;;;8.00;99.90;;;;;;5043542;28;20603;-82
2021/05/25 04:10:53;;;;;;;1.40;1.30;;;8.00;99.90;;;;;;5043424;28;20206;-82
2021/05/25 04:13:19;;;;;;;0.95;0.95;;;7.90;99.90;;;;;;5041983;28;20210;-82
2021/05/25 04:15:52;;;;;;;0.70;0.70;;;8.00;99.90;;;;;;5043127;28;20210;-82
2021/05/25 04:18:19;;;;;;;0.60;0.40;;;8.00;99.90;;;;;;5042250;28;20304;-82
2021/05/25 04:20:45;;;;;;;1.40;0.70;;;8.00;99.90;;;;;;5042197;28;20230;-81
2021/05/25 04:23:12;;;;;;;0.80;0.70;;;8.00;99.90;;;;;;5041199;28;20210;-81
2021/05/25 04:25:38;;;;;;;1.00;0.90;;;8.10;99.90;;;;;;5041590;28;20573;-81
2021/05/25 04:28:05;;;;;;;2.15;0.95;;;8.10;99.90;;;;;;5041808;28;20226;-82
2021/05/25 04:30:31;;;;;;;1.35;0.70;;;8.10;99.90;;;;;;5042135;28;20214;-84
2021/05/25 04:32:58;;;;;;;2.05;0.80;;;8.10;99.90;;;;;;5040832;28;20212;-82
2021/05/25 04:35:25;;;;;;;3.63;0.70;;;8.10;99.90;;;;;;5040658;28;20206;-82
2021/05/25 04:37:52;;;;;;;0.63;0.63;;;8.20;99.90;;;;;;5040299;28;20202;-82
2021/05/25 04:40:19;;;;;;;0.85;0.60;;;8.10;99.90;;;;;;5040494;28;20230;-81
2021/05/25 04:42:47;;;;;;;0.75;0.75;;;8.20;99.90;;;;;;5039748;28;20206;-82
2021/05/25 04:45:15;;;;;;;1.35;0.70;;;8.20;99.90;;;;;;5039852;28;20215;-82
2021/05/25 04:47:41;;;;;;;1.38;0.75;;;8.20;99.90;;;;;;5039540;28;20216;-81
2021/05/25 04:50:11;;;;;;;0.40;0.40;;;8.20;99.90;;;;;;5051614;28;20210;-79
2021/05/25 04:52:37;;;;;;;1.20;0.68;;;8.30;99.90;;;;;;5052993;28;20270;-80
2021/05/25 04:55:06;;;;;;;0.50;0.50;;;8.30;99.90;;;;;;5056304;28;20203;-80
2021/05/25 04:57:32;;;;;;;2.05;0.52;;;8.40;99.90;;;;;;5053882;28;20292;-82
2021/05/25 04:59:59;;;;;;;0.75;0.75;;;8.50;99.90;;;;;;5041575;28;20232;-82
2021/05/25 05:02:25;;;;;;;1.30;0.63;;;8.60;99.90;;;;;;5043163;28;20211;-83
2021/05/25 05:04:51;;;;;;;1.08;0.70;;;8.60;99.90;;;;;;5046981;28;20207;-83
2021/05/25 05:07:18;;;;;;;0.60;0.60;;;8.80;99.90;;;;;;5047643;28;20217;-83
2021/05/25 05:09:45;;;;;;;1.15;0.68;;;8.80;99.90;;;;;;5043143;28;20230;-83
2021/05/25 05:12:11;;;;;;;1.30;0.68;;;8.90;99.90;;;;;;5040975;28;20207;-83
2021/05/25 05:14:37;;;;;;;0.55;0.55;;;8.90;99.90;;;;;;5040215;28;20214;-83
2021/05/25 05:17:04;;;;;;;0.50;0.50;;;9.00;99.90;;;;;;5039828;28;20218;-84
2021/05/25 05:19:30;;;;;;;1.25;1.25;;;9.00;99.90;;;;;;5039570;28;20247;-83
2021/05/25 05:21:56;;;;;;;0.70;0.70;;;9.10;99.90;;;;;;5039152;28;20227;-83
2021/05/25 05:24:23;;;;;;;3.05;1.02;;;9.10;99.90;;;;;;5039155;28;20211;-83
2021/05/25 05:26:50;;;;;;;0.65;0.60;;;9.10;99.90;;;;;;5038986;28;20207;-83
2021/05/25 05:29:16;;;;;;;0.50;0.50;;;9.20;99.90;;;;;;5039219;28;20226;-83
2021/05/25 05:31:42;;;;;;;0.80;0.63;;;9.30;99.90;;;;;;5038900;28;20205;-83
2021/05/25 05:34:09;;;;;;;0.55;0.55;;;9.30;99.90;;;;;;5039331;28;20517;-81
2021/05/25 05:36:35;;;;;;;1.95;0.88;;;9.40;99.90;;;;;;5038660;28;20213;-82
2021/05/25 05:39:02;;;;;;;2.65;0.88;;;9.40;99.90;;;;;;5039045;28;20239;-83
2021/05/25 05:41:29;;;;;;;1.48;1.38;;;9.40;99.90;;;;;;5038397;28;20832;-80
2021/05/25 05:43:56;;;;;;;9.38;2.30;;;9.50;99.90;;;;;;5038827;28;20211;-83
2021/05/25 05:46:22;;;;;;;1.15;0.70;;;9.50;99.90;;;;;;5039009;28;20204;-84
2021/05/25 05:48:48;;;;;;;0.60;0.57;;;9.60;99.90;;;;;;5038769;28;20600;-83
2021/05/25 05:51:14;;;;;;;3.22;0.75;;;9.60;99.90;;;;;;5038352;28;20211;-83
2021/05/25 05:53:41;;;;;;;0.50;0.40;;;9.50;99.90;;;;;;5038540;28;20211;-84
2021/05/25 05:56:07;;;;;;;6.82;1.15;;;9.50;99.90;;;;;;5038167;28;20210;-83
2021/05/25 05:58:34;;;;;;;0.63;0.63;;;9.60;99.90;;;;;;5042771;28;20220;-82
2021/05/25 06:01:00;;;;;;;1.63;0.63;;;9.50;99.90;;;;;;5048100;28;20224;-83
2021/05/25 06:03:27;;;;;;;1.38;0.75;;;9.60;99.90;;;;;;5047214;28;20205;-84
2021/05/25 06:05:53;;;;;;;0.73;0.73;;;9.60;99.90;;;;;;5049463;28;20200;-84
2021/05/25 06:08:21;;;;;;;1.40;0.82;;;9.60;99.90;;;;;;5047342;28;20450;-82
2021/05/25 06:10:51;;;;;;;0.63;0.63;;;9.70;99.90;;;;;;5046891;28;20654;-82
2021/05/25 06:13:19;;;;;;;1.50;0.85;;;9.70;99.90;;;;;;5047230;28;20455;-84
2021/05/25 06:15:46;;;;;;;0.30;0.30;;;9.80;99.90;;;;;;5048241;28;20204;-84
2021/05/25 06:18:13;;;;;;;0.40;0.40;;;9.90;99.90;;;;;;5049440;28;20210;-84
2021/05/25 06:20:39;;;;;;;0.60;0.60;;;9.90;99.90;;;;;;5047698;28;20494;-84
2021/05/25 06:23:06;;;;;;;0.63;0.60;;;10.00;99.90;;;;;;5050325;28;20441;-80
2021/05/25 06:25:32;;;;;;;0.60;0.50;;;9.90;99.90;;;;;;5048972;28;20436;-82
2021/05/25 06:27:59;;;;;;;2.40;1.00;;;9.90;99.90;;;;;;5047023;28;20235;-83
2021/05/25 06:30:26;;;;;;;1.00;0.80;;;9.90;99.90;;;;;;5049373;28;20461;-82
2021/05/25 06:32:53;;;;;;;3.47;1.30;;;10.00;99.90;;;;;;5053553;28;20471;-81
2021/05/25 06:35:20;;;;;;;0.53;0.53;;;10.00;99.90;;;;;;5055578;28;20448;-80
2021/05/25 06:37:46;;;;;;;1.92;0.82;;;10.10;99.90;;;;;;5052292;28;20450;-85
2021/05/25 06:40:13;;;;;;;0.80;0.80;;;10.10;99.90;;;;;;5054510;28;20226;-84
2021/05/25 06:42:40;;;;;;;1.02;0.65;;;10.00;99.90;;;;;;5061232;28;20223;-84
2021/05/25 06:45:08;;;;;;;0.60;0.60;;;10.00;99.90;;;;;;5061978;28;20240;-81
2021/05/25 06:47:34;;;;;;;0.60;0.60;;;10.00;99.90;;;;;;5061210;28;20254;-84
2021/05/25 06:50:01;;;;;;;1.00;0.90;;;10.20;99.90;;;;;;5059861;28;20475;-82
2021/05/25 06:52:28;;;;;;;2.73;1.27;;;10.30;99.90;;;;;;5059695;28;20211;-83
2021/05/25 06:54:54;;;;;;;4.93;0.98;;;10.40;99.90;;;;;;5059246;28;20469;-83
2021/05/25 06:57:20;;;;;;;0.70;0.70;;;10.50;99.90;;;;;;5058304;28;20306;-82
2021/05/25 06:59:46;;;;;;;1.27;0.70;;;10.70;99.90;;;;;;5058796;28;20971;-82
2021/05/25 07:02:13;;;;;;;0.83;0.83;;;10.80;99.90;;;;;;5058392;28;20490;-81
2021/05/25 07:04:39;;;;;;;0.57;0.57;;;10.90;99.90;;;;;;5058059;28;20862;-81
2021/05/25 07:07:06;;;;;;;2.07;0.70;;;10.80;99.90;;;;;;5059284;28;20457;-82
2021/05/25 07:09:32;;;;;;;1.00;0.90;;;10.90;99.90;;;;;;5059766;28;20525;-82
2021/05/25 07:12:02;;;;;;;1.17;0.87;;;10.90;99.90;;;;;;5059126;28;20446;-82
2021/05/25 07:14:28;;;;;;;0.63;0.60;;;11.00;99.90;;;;;;5060068;28;20517;-81
2021/05/25 07:16:55;;;;;;;1.90;0.80;;;11.10;99.90;;;;;;5058799;28;20451;-82
2021/05/25 07:19:21;;;;;;;1.50;0.80;;;11.20;99.90;;;;;;5058124;28;20504;-82
2021/05/25 07:21:47;;;;;;;1.60;0.67;;;11.20;99.70;;;;;;5061708;28;20539;-81
2021/05/25 07:24:14;;;;;;;1.05;0.98;;;11.20;99.90;;;;;;5062405;28;20456;-80
2021/05/25 07:26:41;;;;;;;2.70;0.67;;;11.30;99.90;;;;;;5059989;28;20213;-80
2021/05/25 07:29:07;;;;;;;1.23;0.60;;;11.10;99.90;;;;;;5062253;28;20542;-82
2021/05/25 07:31:34;;;;;;;0.70;0.70;;;11.00;99.60;;;;;;5063765;28;20945;-82
2021/05/25 07:34:00;;;;;;;1.33;0.50;;;10.90;99.90;;;;;;5062897;28;20459;-81
2021/05/25 07:36:26;;;;;;;1.73;0.57;;;11.20;99.60;;;;;;5062166;28;20458;-81
2021/05/25 07:38:52;;;;;;;0.70;0.70;;;11.30;98.30;;;;;;5060647;28;20489;-78
2021/05/25 07:41:19;;;;;;;2.43;0.70;;;11.50;98.10;;;;;;5060177;28;20513;-79
2021/05/25 07:43:46;;;;;;;1.03;0.70;;;11.70;97.70;;;;;;5059755;28;20995;-79
2021/05/25 07:46:12;;;;;;;1.43;1.33;;;11.80;98.40;;;;;;5060132;28;20454;-77
2021/05/25 07:48:40;;;;;;;0.77;0.73;;;12.00;99.10;;;;;;5059786;28;20483;-79
2021/05/25 07:51:06;;;;;;;0.60;0.60;;;12.20;98.20;;;;;;5059296;28;20455;-80
2021/05/25 07:53:33;;;;;;;3.07;2.03;;;12.30;97.60;;;;;;5060938;28;20459;-82
2021/05/25 07:55:59;;;;;;;0.90;0.63;;;12.10;97.10;;;;;;5061241;28;20455;-82
2021/05/25 07:58:26;;;;;;;0.57;0.50;;;12.00;97.70;;;;;;5062065;28;20451;-79
2021/05/25 08:00:53;;;;;;;0.50;0.50;;;11.90;97.00;;;;;;5061550;28;20636;-80
2021/05/25 08:03:20;;;;;;;0.70;0.50;;;12.00;96.80;;;;;;5057383;28;21006;-79
2021/05/25 08:05:46;;;;;;;0.57;0.57;;;11.70;96.20;;;;;;5056241;28;20957;-79
2021/05/25 08:08:13;;;;;;;1.10;1.00;;;11.70;96.40;;;;;;5057404;28;20550;-79
2021/05/25 08:10:39;;;;;;;0.60;0.60;;;11.80;95.90;;;;;;5056956;28;20455;-79
2021/05/25 08:13:07;;;;;;;0.50;0.40;;;11.80;95.80;;;;;;5056855;28;20956;-78
2021/05/25 08:15:35;;;;;;;0.40;0.30;;;11.80;95.60;;;;;;5058218;28;20459;-79
2021/05/25 08:18:09;;;;;;;1.57;0.77;;;11.70;96.00;;;;;;5058434;28;20677;-78
2021/05/25 08:20:36;;;;;;;2.20;0.70;;;11.90;95.50;;;;;;5058125;28;20483;-79
2021/05/25 08:23:06;;;;;;;0.87;0.87;;;12.00;94.30;;;;;;5064178;28;20534;-82
2021/05/25 08:25:32;;;;;;;0.83;0.80;;;12.20;92.80;;;;;;5063896;28;20451;-82
2021/05/25 08:28:00;;;;;;;1.13;0.60;;;12.30;92.70;;;;;;5064157;28;20517;-81
2021/05/25 08:30:29;;;;;;;0.93;0.67;;;12.40;92.40;;;;;;5064276;28;20471;-81
2021/05/25 08:32:56;;;;;;;1.23;0.50;;;12.30;92.20;;;;;;5061291;28;20910;-81
2021/05/25 08:35:32;;;;;;;0.60;0.40;;;12.20;92.40;;;;;;5064174;28;20455;-83
2021/05/25 08:37:59;;;;;;;1.90;0.60;;;12.30;92.10;;;;;;5064347;28;20547;-82
2021/05/25 08:40:27;;;;;;;0.80;0.53;;;12.40;91.80;;;;;;5065826;28;20514;-81
2021/05/25 08:42:53;;;;;;;1.07;0.80;;;12.20;91.70;;;;;;5064823;28;20460;-82
2021/05/25 08:45:21;;;;;;;0.50;0.50;;;12.30;92.40;;;;;;5064956;28;20448;-82
2021/05/25 08:47:49;;;;;;;0.50;0.50;;;12.10;92.20;;;;;;5064029;28;20459;-82
2021/05/25 08:50:21;;;;;;;1.27;0.50;;;12.40;93.00;;;;;;5063821;28;20475;-81
2021/05/25 08:52:48;;;;;;;0.80;0.70;;;12.70;92.30;;;;;;5063640;28;20456;-82
2021/05/25 08:55:15;;;;;;;1.77;0.97;;;12.90;91.80;;;;;;5064606;28;20465;-84
2021/05/25 08:57:41;;;;;;;1.37;0.63;;;13.10;91.50;;;;;;5058521;28;20472;-81
2021/05/25 09:00:10;;;;;;;0.90;0.73;;;12.70;90.60;;;;;;5061275;28;20472;-82
2021/05/25 09:02:38;;;;;;;4.97;0.83;;;12.60;91.40;;;;;;5070356;28;20452;-81
2021/05/25 09:05:08;;;;;;;1.03;0.50;;;12.50;91.30;;;;;;5070874;28;20458;-81
2021/05/25 09:07:40;;;;;;;0.60;0.50;;;12.30;91.30;;;;;;5072047;28;20503;-81
2021/05/25 09:10:09;;;;;;;0.67;0.33;;;12.20;91.30;;;;;;5072645;28;21059;-82
2021/05/25 09:12:38;;;;;;;0.60;0.60;;;12.20;91.00;;;;;;5070239;28;20444;-82
2021/05/25 09:15:05;;;;;;;0.73;0.60;;;12.30;90.70;;;;;;5059927;28;20421;-80
2021/05/25 09:17:31;;;;;;;2.87;1.10;;;12.40;92.00;;;;;;5055243;28;20445;-80
2021/05/25 09:19:59;;;;;;;0.80;0.53;;;12.70;91.60;;;;;;5055240;28;20477;-82
2021/05/25 09:22:30;;;;;;;0.50;0.50;;;12.70;90.70;;;;;;5048538;28;20481;-80
2021/05/25 09:25:01;;;;;;;2.80;0.73;;;12.80;90.60;;;;;;5050136;28;20524;-81
2021/05/25 09:27:35;;;;;;;1.30;1.20;;;12.90;90.90;;;;;;5056177;28;20495;-82
2021/05/25 09:30:19;;;;;;;0.57;0.57;;;13.00;90.60;;;;;;5062604;28;20465;-85
2021/05/25 09:32:48;;;;;;;2.93;0.80;;;13.00;90.40;;;;;;5050505;28;20475;-81
2021/05/25 09:35:45;;;;;;;1.50;0.63;;;12.80;90.00;;;;;;5047930;28;20476;-85
2021/05/25 09:38:13;;;;;;;2.97;0.60;;;12.80;90.50;;;;;;5054776;28;20469;-80
2021/05/25 09:40:42;;;;;;;1.33;0.80;;;12.70;90.50;;;;;;5051999;28;20571;-81
2021/05/25 09:43:17;;;;;;;2.37;0.80;;;12.70;90.10;;;;;;5057916;28;20468;-80
2021/05/25 09:46:01;;;;;;;0.90;0.83;;;12.70;90.00;;;;;;5046729;28;20980;-79
2021/05/25 09:48:30;;;;;;;3.00;1.30;;;12.90;90.50;;;;;;5042328;28;21074;-80
2021/05/25 09:50:57;;;;;;;1.73;1.10;;;13.10;89.90;;;;;;5042786;28;20453;-79
2021/05/25 09:53:27;;;;;;;1.13;0.90;;;13.20;90.40;;;;;;5045605;28;20456;-79
2021/05/25 09:55:56;;;;;;;0.80;0.50;;;13.40;89.80;;;;;;5052139;28;20491;-80
2021/05/25 09:58:24;;;;;;;1.37;0.70;;;13.60;88.40;;;;;;5053206;28;20459;-81
2021/05/25 10:00:53;;;;;;;1.30;1.20;;;13.80;89.40;;;;;;5055738;28;20509;-83
2021/05/25 10:03:21;;;;;;;2.40;1.00;;;13.70;88.30;;;;;;5054976;28;20540;-81
2021/05/25 10:06:16;;;;;;;0.80;0.70;;;13.60;89.30;;;;;;5053619;28;20540;-79
2021/05/25 10:08:49;;;;;;;1.37;0.70;;;13.80;88.60;;;;;;5054332;28;20544;-82
2021/05/25 10:11:25;;;;;;;1.20;0.87;;;13.70;88.00;;;;;;5056218;28;20417;-81
2021/05/25 10:14:00;;;;;;;0.80;0.80;;;13.70;86.60;;;;;;5056842;28;20460;-81
2021/05/25 10:16:35;;;;;;;3.90;0.80;;;13.70;86.80;;;;;;5056710;28;20444;-82
2021/05/25 10:19:25;;;;;;;3.60;0.90;;;13.70;86.60;;;;;;5056664;28;20472;-81
2021/05/25 10:21:54;;;;;;;1.73;0.70;;;13.80;87.10;;;;;;5056118;28;20481;-80
2021/05/25 10:24:27;;;;;;;1.57;0.70;;;13.80;87.40;;;;;;5056087;28;20453;-82
2021/05/25 10:26:55;;;;;;;1.47;0.83;;;13.60;86.50;;;;;;5056432;28;20532;-81
2021/05/25 10:29:21;;;;;;;1.57;0.73;;;13.70;84.10;;;;;;5056698;28;20477;-81
2021/05/25 10:32:00;;;;;;;3.70;1.33;;;13.90;83.50;;;;;;5056296;28;20479;-81
2021/05/25 10:34:32;;;;;;;1.07;0.80;;;14.10;81.60;;;;;;5056487;28;20516;-80
2021/05/25 10:37:01;;;;;;;0.50;0.50;;;14.20;80.50;;;;;;5056185;28;20453;-81
2021/05/25 10:39:37;;;;;;;2.00;1.10;;;14.30;79.70;;;;;;5056138;28;20465;-81
2021/05/25 10:42:31;;;;;;;2.67;1.10;;;14.40;81.10;;;;;;5056488;28;20468;-81
2021/05/25 10:44:59;;;;;;;0.80;0.70;;;14.50;80.10;;;;;;5056351;28;20475;-80
2021/05/25 10:47:32;;;;;;;1.10;1.00;;;14.20;81.30;;;;;;5056358;28;20457;-80
2021/05/25 10:50:12;;;;;;;0.67;0.67;;;14.10;82.80;;;;;;5056992;28;20500;-80
2021/05/25 10:52:38;;;;;;;0.50;0.50;;;13.80;83.00;;;;;;5056370;28;20433;-81
2021/05/25 10:55:05;;;;;;;3.83;1.43;;;13.60;84.60;;;;;;5056042;28;20469;-81
2021/05/25 10:57:46;;;;;;;4.83;1.27;;;13.70;85.20;;;;;;5060777;28;20483;-81
2021/05/25 11:00:15;;;;;;;1.33;1.17;;;14.00;85.80;;;;;;5060171;28;20460;-81
2021/05/25 11:02:44;;;;;;;3.27;0.83;;;14.10;84.20;;;;;;5059539;28;20512;-81
2021/05/25 11:05:52;;;;;;;2.03;1.20;;;14.20;84.60;;;;;;5060285;28;20449;-81
2021/05/25 11:08:27;;;;;;;1.93;1.23;;;14.20;84.80;;;;;;5059604;28;20429;-81
2021/05/25 11:11:04;;;;;;;0.70;0.70;;;14.20;83.90;;;;;;5059926;28;20448;-81
2021/05/25 11:13:37;;;;;;;1.27;0.77;;;14.10;84.10;;;;;;5060011;28;20461;-81
2021/05/25 11:16:07;;;;;;;1.60;1.10;;;13.90;83.90;;;;;;5059978;28;20456;-81
2021/05/25 11:18:37;;;;;;;0.70;0.50;;;13.80;84.80;;;;;;5059836;28;20468;-80
2021/05/25 11:21:21;;;;;;;1.70;0.93;;;13.60;84.90;;;;;;5059792;28;20480;-81
2021/05/25 11:23:50;;;;;;;2.10;0.73;;;13.30;91.10;;;;;;5058815;28;20503;-82
2021/05/25 11:26:58;;;;;;;0.93;0.80;;;12.90;92.90;;;;;;5056030;28;20458;-82
2021/05/25 11:29:26;;;;;;;2.50;1.00;;;11.80;97.10;;;;;;5053148;28;20490;-82
2021/05/25 11:31:53;;;;;;;0.90;0.90;;;11.20;99.90;;;;;;5054795;28;20461;-82
2021/05/25 11:34:21;;;;;;;1.00;1.00;;;11.00;99.90;;;;;;5055488;28;20486;-82
2021/05/25 11:36:53;;;;;;;2.40;1.00;;;10.90;99.90;;;;;;5058602;28;20452;-82
2021/05/25 11:39:20;;;;;;;0.67;0.67;;;11.30;99.90;;;;;;5056454;28;20517;-82
2021/05/25 11:41:46;;;;;;;2.37;0.70;;;11.80;99.90;;;;;;5057253;28;20547;-82
2021/05/25 11:44:15;;;;;;;2.30;1.10;;;12.20;99.90;;;;;;5059029;28;20449;-82
2021/05/25 11:46:43;;;;;;;1.10;1.00;;;12.60;99.90;;;;;;5059229;28;20519;-82
2021/05/25 11:49:10;;;;;;;2.57;1.23;;;13.00;99.00;;;;;;5057967;28;20590;-82
2021/05/25 11:51:38;;;;;;;2.10;1.17;;;13.00;96.80;;;;;;5059826;28;20470;-82
2021/05/25 11:54:12;;;;;;;1.50;1.40;;;13.10;97.40;;;;;;5059943;28;20446;-81
2021/05/25 11:56:39;;;;;;;2.00;0.80;;;13.20;95.70;;;;;;5059919;28;20429;-82
2021/05/25 11:59:12;;;;;;;0.83;0.83;;;13.50;94.10;;;;;;5059738;28;20463;-82
2021/05/25 12:01:39;;;;;;;1.13;0.70;;;14.00;93.10;;;;;;5059233;28;20453;-82
2021/05/25 12:04:07;;;;;;;0.70;0.70;;;14.70;91.10;;;;;;5059478;28;20965;-83
2021/05/25 12:06:33;;;;;;;1.10;0.73;;;15.20;89.40;;;;;;5059523;28;20457;-82
2021/05/25 12:09:07;;;;;;;0.73;0.63;;;15.50;86.30;;;;;;5059240;28;20476;-83
2021/05/25 12:11:36;;;;;;;0.97;0.60;;;16.00;85.20;;;;;;5059106;28;20451;-83
2021/05/25 12:14:03;;;;;;;1.73;0.70;;;16.20;83.40;;;;;;5058903;28;20519;-83
2021/05/25 12:16:30;;;;;;;0.83;0.83;;;16.60;81.70;;;;;;5058870;28;20517;-82
2021/05/25 12:18:56;;;;;;;0.90;0.90;;;16.90;79.60;;;;;;5059556;28;20496;-82
2021/05/25 12:21:24;;;;;;;2.40;1.20;;;17.40;79.10;;;;;;5058980;28;20498;-83
2021/05/25 12:23:51;;;;;;;1.53;0.80;;;17.70;77.40;;;;;;5058980;28;20458;-82
2021/05/25 12:26:18;;;;;;;0.83;0.83;;;17.60;74.80;;;;;;5058366;28;20442;-82
2021/05/25 12:28:48;;;;;;;2.40;1.13;;;17.30;73.00;;;;;;5058947;28;20479;-82
2021/05/25 12:31:16;;;;;;;2.40;0.90;;;16.90;70.20;;;;;;5058586;28;20458;-82
2021/05/25 12:33:46;;;;;;;1.73;0.90;;;16.30;71.30;;;;;;5058674;28;20455;-82
2021/05/25 12:36:14;;;;;;;1.70;0.83;;;16.00;71.30;;;;;;5058779;28;20429;-82
2021/05/25 12:38:56;;;;;;;1.60;0.90;;;15.80;70.80;;;;;;5058668;28;20504;-82
2021/05/25 12:41:23;;;;;;;0.90;0.90;;;15.30;71.10;;;;;;5059074;28;20468;-82
2021/05/25 12:43:49;;;;;;;1.83;0.90;;;14.90;73.10;;;;;;5059032;28;20441;-82
2021/05/25 12:46:16;;;;;;;1.93;0.80;;;14.80;74.60;;;;;;5058814;28;20438;-82
2021/05/25 12:48:43;;;;;;;1.00;0.80;;;14.50;82.60;;;;;;5058927;28;20528;-82
2021/05/25 12:51:11;;;;;;;1.07;0.90;;;14.50;80.70;;;;;;5059172;28;20479;-82
2021/05/25 12:53:52;;;;;;;0.83;0.50;;;15.10;79.90;;;;;;5059143;28;20441;-82
2021/05/25 12:56:20;;;;;;;2.50;0.90;;;15.90;77.60;;;;;;5059137;28;20493;-82
2021/05/25 12:58:48;;;;;;;0.93;0.60;;;16.80;73.30;;;;;;5058754;28;20475;-82
2021/05/25 13:01:30;;;;;;;0.70;0.50;;;17.50;70.00;;;;;;5058372;28;20489;-81